createdAt,value
2023-04-09T00:00:16.862Z,3.35
2023-04-09T00:01:19.426Z,2.82
2023-04-09T00:02:22.325Z,2.88
2023-04-09T00:03:26.688Z,2.66
2023-04-09T00:04:30.496Z,3.05
2023-04-09T00:05:33.296Z,4.70
2023-04-09T00:06:36.252Z,4.33
2023-04-09T00:07:38.927Z,2.78
2023-04-09T00:08:41.806Z,3.20
2023-04-09T00:09:44.475Z,2.74
2023-04-09T00:10:47.663Z,3.92
2023-04-09T00:11:50.341Z,4.08
2023-04-09T00:12:53.002Z,3.00
2023-04-09T00:13:55.573Z,4.92
2023-04-09T00:14:58.549Z,2.91
2023-04-09T00:16:01.227Z,4.05
2023-04-09T00:17:03.876Z,3.23
2023-04-09T00:18:06.465Z,3.12
2023-04-09T00:19:09.335Z,3.92
2023-04-09T00:20:12.097Z,3.24
2023-04-09T00:21:14.777Z,2.49
2023-04-09T00:22:17.438Z,3.99
2023-04-09T00:23:20.108Z,5.21
2023-04-09T00:24:22.785Z,4.48
2023-04-09T00:25:25.444Z,3.18
2023-04-09T00:26:28.036Z,3.08
2023-04-09T00:27:30.746Z,3.52
2023-04-09T00:28:33.580Z,4.15
2023-04-09T00:29:36.335Z,4.75
2023-04-09T00:30:40.128Z,11.91
2023-04-09T00:31:42.826Z,3.53
2023-04-09T00:32:45.523Z,4.55
2023-04-09T00:33:48.545Z,3.42
2023-04-09T00:34:51.317Z,3.32
2023-04-09T00:35:54.231Z,3.94
2023-04-09T00:36:57.071Z,3.40
2023-04-09T00:38:00.058Z,7.29
2023-04-09T00:39:03.038Z,2.79
2023-04-09T00:40:06.015Z,3.04
2023-04-09T00:41:08.977Z,4.79
2023-04-09T00:42:11.856Z,3.95
2023-04-09T00:43:14.739Z,3.17
2023-04-09T00:44:17.295Z,4.00
2023-04-09T00:45:20.372Z,4.59
2023-04-09T00:46:23.249Z,3.16
2023-04-09T00:48:41.928Z,2.60
2023-04-09T00:49:44.685Z,4.23
2023-04-09T00:50:47.353Z,4.54
2023-04-09T00:51:50.411Z,3.04
2023-04-09T00:52:53.203Z,3.21
2023-04-09T00:53:57.776Z,2.87
2023-04-09T00:55:00.379Z,2.81
2023-04-09T00:56:02.961Z,2.67
2023-04-09T00:57:06.024Z,4.37
2023-04-09T00:58:08.801Z,9.62
2023-04-09T00:59:11.670Z,3.42
2023-04-09T01:00:14.253Z,3.79
2023-04-09T01:01:17.354Z,4.32
2023-04-09T01:02:20.263Z,4.54
2023-04-09T01:03:23.264Z,3.01
2023-04-09T01:04:26.143Z,3.38
2023-04-09T01:05:28.911Z,3.48
2023-04-09T01:06:31.595Z,4.25
2023-04-09T01:07:34.149Z,6.93
2023-04-09T01:08:36.925Z,3.82
2023-04-09T01:09:39.596Z,4.37
2023-04-09T01:10:42.658Z,3.03
2023-04-09T01:11:45.249Z,3.49
2023-04-09T01:12:48.228Z,3.99
2023-04-09T01:13:50.900Z,2.82
2023-04-09T01:14:53.552Z,3.43
2023-04-09T01:15:56.342Z,3.98
2023-04-09T01:16:58.941Z,3.73
2023-04-09T01:18:01.899Z,3.53
2023-04-09T01:19:04.441Z,4.25
2023-04-09T01:20:07.216Z,3.49
2023-04-09T01:21:09.785Z,4.11
2023-04-09T01:22:12.461Z,4.82
2023-04-09T01:23:15.639Z,4.12
2023-04-09T01:24:18.398Z,3.00
2023-04-09T01:25:21.511Z,2.43
2023-04-09T01:26:24.466Z,3.05
2023-04-09T01:27:27.036Z,4.83
2023-04-09T01:28:29.998Z,4.89
2023-04-09T01:29:32.686Z,3.68
2023-04-09T01:30:35.797Z,4.42
2023-04-09T01:31:38.422Z,3.42
2023-04-09T01:32:41.327Z,2.13
2023-04-09T01:33:44.271Z,2.55
2023-04-09T01:34:47.150Z,2.68
2023-04-09T01:35:49.971Z,3.12
2023-04-09T01:36:52.802Z,2.68
2023-04-09T01:37:55.591Z,3.19
2023-04-09T01:38:58.652Z,6.85
2023-04-09T01:40:01.438Z,5.25
2023-04-09T01:41:04.217Z,3.06
2023-04-09T01:42:07.061Z,4.54
2023-04-09T01:43:10.053Z,3.92
2023-04-09T01:44:13.041Z,4.12
2023-04-09T01:45:15.589Z,3.47
2023-04-09T01:46:18.384Z,2.76
2023-04-09T01:47:21.906Z,2.65
2023-04-09T01:48:24.523Z,4.92
2023-04-09T01:49:27.092Z,3.44
2023-04-09T01:50:29.663Z,2.91
2023-04-09T01:51:32.550Z,4.29
2023-04-09T01:52:35.414Z,5.25
2023-04-09T01:53:38.284Z,2.10
2023-04-09T01:54:41.278Z,2.81
2023-04-09T01:55:43.832Z,3.07
2023-04-09T01:56:46.500Z,2.92
2023-04-09T01:57:49.185Z,2.62
2023-04-09T01:58:52.284Z,3.56
2023-04-09T01:59:55.446Z,3.89
2023-04-09T02:00:58.147Z,2.22
2023-04-09T02:02:00.743Z,2.13
2023-04-09T02:03:03.733Z,3.34
2023-04-09T02:04:07.202Z,3.98
2023-04-09T02:05:10.485Z,2.90
2023-04-09T02:06:13.304Z,3.31
2023-04-09T02:07:16.151Z,3.02
2023-04-09T02:08:19.129Z,2.82
2023-04-09T02:09:22.622Z,2.61
2023-04-09T02:10:25.712Z,2.35
2023-04-09T02:11:28.597Z,2.28
2023-04-09T02:12:31.546Z,2.88
2023-04-09T02:13:34.332Z,4.55
2023-04-09T02:14:37.004Z,2.83
2023-04-09T02:15:40.062Z,3.78
2023-04-09T02:16:42.662Z,3.25
2023-04-09T02:17:45.392Z,3.21
2023-04-09T02:18:53.807Z,3.72
2023-04-09T02:19:56.602Z,3.14
2023-04-09T02:20:59.471Z,2.32
2023-04-09T02:22:02.046Z,3.35
2023-04-09T02:23:04.916Z,2.28
2023-04-09T02:24:07.810Z,1.59
2023-04-09T02:25:10.394Z,2.20
2023-04-09T02:26:13.465Z,3.14
2023-04-09T02:27:16.112Z,3.41
2023-04-09T02:28:18.672Z,3.07
2023-04-09T02:29:21.553Z,4.39
2023-04-09T02:30:24.420Z,2.48
2023-04-09T02:31:27.258Z,1.98
2023-04-09T02:32:29.886Z,2.32
2023-04-09T02:33:32.749Z,1.75
2023-04-09T02:34:35.626Z,3.36
2023-04-09T02:35:38.447Z,2.35
2023-04-09T02:36:41.073Z,3.44
2023-04-09T02:37:43.622Z,2.15
2023-04-09T02:38:46.302Z,2.14
2023-04-09T02:39:48.968Z,2.73
2023-04-09T02:40:51.641Z,2.02
2023-04-09T02:41:54.203Z,3.42
2023-04-09T02:42:56.881Z,2.30
2023-04-09T02:43:59.551Z,2.78
2023-04-09T02:45:04.709Z,2.21
2023-04-09T02:46:07.273Z,2.69
2023-04-09T02:47:10.118Z,2.41
2023-04-09T02:48:12.789Z,2.14
2023-04-09T02:49:15.455Z,3.27
2023-04-09T02:50:18.130Z,2.52
2023-04-09T02:51:20.693Z,2.13
2023-04-09T02:52:23.465Z,2.88
2023-04-09T02:53:26.164Z,4.51
2023-04-09T02:54:28.709Z,2.95
2023-04-09T02:55:31.383Z,2.30
2023-04-09T02:56:33.944Z,3.62
2023-04-09T02:57:36.616Z,4.83
2023-04-09T02:58:39.174Z,2.29
2023-04-09T02:59:41.847Z,1.95
2023-04-09T03:00:44.422Z,3.17
2023-04-09T03:01:47.169Z,2.95
2023-04-09T03:02:50.095Z,2.88
2023-04-09T03:03:52.835Z,2.46
2023-04-09T03:04:55.506Z,3.58
2023-04-09T03:05:58.073Z,2.51
2023-04-09T03:07:00.752Z,2.48
2023-04-09T03:08:03.524Z,3.25
2023-04-09T03:09:06.191Z,3.43
2023-04-09T03:10:08.771Z,2.24
2023-04-09T03:11:11.430Z,2.15
2023-04-09T03:12:13.988Z,2.01
2023-04-09T03:13:16.661Z,2.86
2023-04-09T03:14:19.328Z,2.05
2023-04-09T03:15:21.900Z,3.73
2023-04-09T03:16:24.799Z,3.19
2023-04-09T03:17:27.674Z,3.22
2023-04-09T03:18:30.730Z,2.72
2023-04-09T03:19:33.891Z,3.23
2023-04-09T03:20:36.974Z,2.29
2023-04-09T03:21:39.956Z,1.75
2023-04-09T03:22:43.027Z,3.55
2023-04-09T03:23:46.321Z,2.72
2023-04-09T03:24:49.390Z,2.48
2023-04-09T03:25:52.583Z,2.83
2023-04-09T03:26:55.961Z,3.22
2023-04-09T03:27:59.346Z,2.70
2023-04-09T03:29:02.737Z,2.74
2023-04-09T03:30:05.814Z,2.55
2023-04-09T03:31:08.915Z,2.69
2023-04-09T03:32:11.880Z,2.42
2023-04-09T03:33:14.958Z,2.28
2023-04-09T03:34:18.435Z,3.62
2023-04-09T03:35:21.845Z,3.68
2023-04-09T03:36:24.708Z,3.67
2023-04-09T03:37:27.884Z,2.65
2023-04-09T03:38:31.185Z,2.63
2023-04-09T03:39:34.154Z,2.55
2023-04-09T03:40:37.234Z,2.84
2023-04-09T03:41:39.999Z,3.64
2023-04-09T03:42:43.182Z,2.16
2023-04-09T03:43:46.155Z,2.66
2023-04-09T03:44:49.256Z,3.05
2023-04-09T03:45:52.011Z,4.01
2023-04-09T03:46:55.023Z,3.42
2023-04-09T03:47:58.184Z,2.30
2023-04-09T03:49:01.242Z,2.13
2023-04-09T03:50:04.238Z,2.68
2023-04-09T03:51:07.104Z,2.75
2023-04-09T03:52:09.974Z,1.93
2023-04-09T03:53:13.058Z,2.67
2023-04-09T03:54:16.866Z,2.31
2023-04-09T03:55:20.233Z,2.18
2023-04-09T03:56:23.525Z,2.47
2023-04-09T03:57:26.803Z,2.75
2023-04-09T03:58:29.875Z,2.72
2023-04-09T03:59:32.956Z,2.11
2023-04-09T04:00:35.933Z,3.12
2023-04-09T04:01:39.288Z,3.02
2023-04-09T04:02:42.785Z,2.52
2023-04-09T04:03:46.100Z,3.74
2023-04-09T04:04:49.303Z,1.90
2023-04-09T04:05:52.148Z,2.59
2023-04-09T04:06:54.923Z,3.15
2023-04-09T04:07:57.897Z,2.11
2023-04-09T04:09:01.087Z,1.56
2023-04-09T04:10:04.056Z,2.22
2023-04-09T04:11:07.240Z,1.68
2023-04-09T04:12:10.218Z,2.55
2023-04-09T04:13:16.209Z,2.89
2023-04-09T04:14:19.755Z,1.66
2023-04-09T04:15:22.733Z,1.74
2023-04-09T04:16:26.051Z,2.88
2023-04-09T04:17:28.920Z,3.11
2023-04-09T04:18:32.211Z,2.56
2023-04-09T04:19:35.354Z,2.54
2023-04-09T04:20:38.434Z,2.29
2023-04-09T04:21:42.648Z,2.52
2023-04-09T04:22:45.721Z,2.37
2023-04-09T04:23:48.699Z,2.66
2023-04-09T04:24:51.674Z,3.58
2023-04-09T04:28:20.163Z,2.34
2023-04-09T04:29:23.168Z,3.17
2023-04-09T04:30:26.325Z,4.85
2023-04-09T04:31:29.442Z,2.42
2023-04-09T04:32:33.797Z,2.42
2023-04-09T04:33:36.997Z,3.34
2023-04-09T04:34:40.189Z,3.98
2023-04-09T04:35:43.528Z,2.54
2023-04-09T04:36:46.642Z,2.77
2023-04-09T04:37:49.520Z,3.12
2023-04-09T04:38:52.957Z,2.32
2023-04-09T04:39:55.981Z,1.76
2023-04-09T04:40:58.961Z,3.55
2023-04-09T04:42:02.344Z,7.36
2023-04-09T04:43:05.640Z,2.95
2023-04-09T04:44:08.606Z,2.71
2023-04-09T04:45:11.484Z,6.15
2023-04-09T04:46:14.761Z,1.70
2023-04-09T04:47:17.956Z,2.05
2023-04-09T04:48:21.132Z,3.11
2023-04-09T04:49:24.419Z,2.32
2023-04-09T04:50:27.493Z,2.40
2023-04-09T04:51:30.574Z,3.48
2023-04-09T04:52:33.858Z,3.14
2023-04-09T04:53:36.837Z,1.80
2023-04-09T04:54:39.918Z,3.18
2023-04-09T04:55:42.903Z,2.76
2023-04-09T04:56:47.005Z,2.35
2023-04-09T04:57:49.874Z,2.21
2023-04-09T04:58:53.119Z,1.99
2023-04-09T04:59:56.450Z,1.70
2023-04-09T05:00:59.842Z,2.82
2023-04-09T05:02:02.998Z,3.88
2023-04-09T05:03:06.190Z,4.29
2023-04-09T05:04:09.368Z,3.66
2023-04-09T05:05:12.670Z,5.01
2023-04-09T05:06:15.742Z,2.91
2023-04-09T05:07:18.813Z,2.16
2023-04-09T05:08:21.797Z,2.98
2023-04-09T05:09:24.665Z,2.81
2023-04-09T05:10:27.748Z,2.63
2023-04-09T05:11:31.027Z,3.03
2023-04-09T05:12:42.234Z,3.66
2023-04-09T05:13:45.096Z,1.84
2023-04-09T05:14:47.984Z,2.55
2023-04-09T05:15:50.542Z,2.92
2023-04-09T05:16:53.318Z,2.57
2023-04-09T05:17:55.912Z,4.27
2023-04-09T05:18:58.549Z,3.60
2023-04-09T05:20:01.247Z,3.25
2023-04-09T05:21:04.094Z,3.60
2023-04-09T05:22:06.981Z,2.54
2023-04-09T05:23:09.741Z,2.85
2023-04-09T05:24:12.586Z,2.71
2023-04-09T05:25:15.573Z,3.35
2023-04-09T05:26:18.351Z,4.59
2023-04-09T05:27:21.416Z,2.75
2023-04-09T05:28:24.598Z,3.02
2023-04-09T05:29:27.684Z,3.82
2023-04-09T05:30:30.791Z,3.27
2023-04-09T05:31:33.944Z,2.83
2023-04-09T05:32:36.632Z,2.67
2023-04-09T05:33:39.487Z,2.43
2023-04-09T05:34:43.688Z,4.88
2023-04-09T05:35:46.791Z,2.81
2023-04-09T05:36:49.744Z,3.25
2023-04-09T05:37:53.032Z,2.68
2023-04-09T05:38:56.383Z,2.18
2023-04-09T05:40:05.744Z,3.57
2023-04-09T05:41:08.412Z,2.94
2023-04-09T05:42:11.295Z,4.03
2023-04-09T05:43:14.067Z,1.56
2023-04-09T05:44:17.266Z,2.76
2023-04-09T05:45:20.640Z,2.17
2023-04-09T05:46:24.115Z,2.85
2023-04-09T05:47:27.100Z,1.84
2023-04-09T05:48:29.874Z,2.56
2023-04-09T05:49:32.849Z,3.37
2023-04-09T05:50:47.140Z,1.65
2023-04-09T05:51:40.646Z,2.39
2023-04-09T05:52:43.732Z,3.26
2023-04-09T05:53:46.907Z,3.54
2023-04-09T05:54:49.992Z,2.21
2023-04-09T05:55:52.970Z,4.19
2023-04-09T05:56:55.843Z,3.61
2023-04-09T05:57:59.027Z,3.03
2023-04-09T05:59:02.099Z,2.57
2023-04-09T06:00:05.191Z,3.85
2023-04-09T06:01:08.060Z,2.74
2023-04-09T06:02:11.030Z,3.18
2023-04-09T06:03:14.006Z,2.01
2023-04-09T06:04:16.961Z,4.08
2023-04-09T06:05:19.961Z,3.37
2023-04-09T06:06:22.835Z,3.05
2023-04-09T06:07:25.812Z,2.09
2023-04-09T06:08:28.901Z,2.88
2023-04-09T06:09:31.877Z,1.98
2023-04-09T06:10:34.743Z,4.20
2023-04-09T06:11:37.620Z,4.54
2023-04-09T06:12:40.493Z,3.58
2023-04-09T06:13:43.169Z,3.05
2023-04-09T06:14:45.939Z,2.48
2023-04-09T06:15:48.935Z,3.89
2023-04-09T06:16:51.896Z,3.58
2023-04-09T06:17:56.533Z,3.33
2023-04-09T06:18:59.491Z,5.49
2023-04-09T06:20:02.360Z,3.03
2023-04-09T06:21:05.338Z,2.28
2023-04-09T06:22:08.419Z,3.28
2023-04-09T06:23:11.602Z,2.79
2023-04-09T06:24:14.270Z,4.86
2023-04-09T06:25:17.450Z,3.95
2023-04-09T06:26:20.628Z,2.83
2023-04-09T06:27:23.754Z,2.42
2023-04-09T06:28:26.701Z,3.37
2023-04-09T06:29:29.472Z,2.65
2023-04-09T06:30:32.238Z,3.12
2023-04-09T06:31:35.206Z,3.00
2023-04-09T06:32:51.164Z,4.06
2023-04-09T06:33:42.796Z,2.60
2023-04-09T06:34:45.469Z,3.36
2023-04-09T06:35:48.548Z,3.68
2023-04-09T06:36:51.643Z,4.11
2023-04-09T06:37:55.216Z,2.46
2023-04-09T06:38:57.991Z,2.55
2023-04-09T06:40:01.588Z,4.27
2023-04-09T06:41:04.661Z,2.78
2023-04-09T06:42:07.694Z,2.72
2023-04-09T06:43:10.719Z,2.62
2023-04-09T06:44:13.385Z,2.11
2023-04-09T06:45:16.287Z,2.65
2023-04-09T06:46:19.363Z,2.04
2023-04-09T06:47:22.219Z,3.49
2023-04-09T06:48:25.091Z,3.44
2023-04-09T06:49:27.758Z,2.53
2023-04-09T06:50:30.943Z,3.53
2023-04-09T06:51:33.814Z,3.42
2023-04-09T06:52:36.586Z,2.32
2023-04-09T06:53:39.423Z,2.97
2023-04-09T06:54:42.234Z,4.23
2023-04-09T06:55:45.108Z,2.46
2023-04-09T06:56:47.786Z,3.45
2023-04-09T06:57:50.552Z,4.35
2023-04-09T06:58:53.534Z,4.16
2023-04-09T06:59:56.408Z,4.72
2023-04-09T07:00:59.174Z,2.55
2023-04-09T07:02:01.883Z,2.75
2023-04-09T07:03:04.806Z,4.04
2023-04-09T07:04:07.937Z,3.45
2023-04-09T07:05:10.681Z,2.61
2023-04-09T07:06:13.551Z,3.83
2023-04-09T07:07:16.233Z,4.04
2023-04-09T07:08:19.092Z,3.22
2023-04-09T07:09:28.508Z,3.38
2023-04-09T07:10:31.193Z,3.83
2023-04-09T07:11:34.072Z,3.82
2023-04-09T07:12:36.852Z,4.26
2023-04-09T07:13:39.741Z,2.77
2023-04-09T07:14:42.588Z,3.95
2023-04-09T07:15:45.541Z,3.19
2023-04-09T07:16:48.443Z,3.48
2023-04-09T07:17:51.555Z,4.57
2023-04-09T07:18:54.496Z,4.35
2023-04-09T07:19:57.267Z,4.42
2023-04-09T07:21:00.363Z,4.29
2023-04-09T07:22:03.330Z,4.92
2023-04-09T07:23:06.402Z,5.07
2023-04-09T07:24:09.179Z,4.82
2023-04-09T07:25:11.950Z,2.63
2023-04-09T07:26:15.128Z,4.46
2023-04-09T07:27:18.213Z,4.32
2023-04-09T07:28:21.188Z,4.15
2023-04-09T07:29:24.058Z,2.79
2023-04-09T07:30:27.037Z,3.30
2023-04-09T07:31:29.713Z,3.89
2023-04-09T07:32:32.467Z,2.51
2023-04-09T07:33:41.906Z,3.78
2023-04-09T07:34:44.988Z,3.58
2023-04-09T07:35:47.888Z,4.39
2023-04-09T07:36:51.048Z,4.87
2023-04-09T07:37:54.027Z,4.14
2023-04-09T07:38:57.304Z,3.72
2023-04-09T07:40:00.298Z,3.92
2023-04-09T07:41:03.262Z,3.86
2023-04-09T07:42:06.497Z,4.82
2023-04-09T07:43:15.012Z,3.72
2023-04-09T07:44:17.718Z,4.83
2023-04-09T07:45:20.502Z,4.82
2023-04-09T07:46:23.316Z,4.38
2023-04-09T07:47:26.092Z,3.32
2023-04-09T07:48:29.017Z,2.72
2023-04-09T07:49:31.859Z,4.43
2023-04-09T07:50:34.770Z,3.83
2023-04-09T07:51:37.540Z,3.83
2023-04-09T07:52:40.319Z,4.88
2023-04-09T07:53:43.181Z,3.18
2023-04-09T07:54:46.163Z,5.38
2023-04-09T07:55:48.939Z,4.88
2023-04-09T07:56:51.718Z,3.48
2023-04-09T07:57:54.586Z,4.85
2023-04-09T07:59:00.840Z,3.87
2023-04-09T08:00:03.620Z,3.88
2023-04-09T08:01:06.480Z,3.86
2023-04-09T08:02:09.327Z,2.75
2023-04-09T08:03:12.718Z,3.64
2023-04-09T08:04:16.016Z,4.15
2023-04-09T08:05:18.863Z,4.61
2023-04-09T08:06:21.573Z,3.52
2023-04-09T08:07:24.358Z,6.07
2023-04-09T08:08:29.355Z,4.06
2023-04-09T08:09:32.061Z,5.05
2023-04-09T08:10:35.125Z,5.95
2023-04-09T08:11:38.100Z,3.95
2023-04-09T08:12:42.302Z,4.13
2023-04-09T08:13:45.176Z,4.18
2023-04-09T08:14:50.720Z,5.03
2023-04-09T08:15:53.695Z,5.19
2023-04-09T08:16:56.785Z,4.21
2023-04-09T08:17:59.925Z,5.82
2023-04-09T08:19:02.731Z,5.34
2023-04-09T08:20:05.398Z,5.10
2023-04-09T08:21:08.375Z,2.94
2023-04-09T08:22:11.452Z,3.93
2023-04-09T08:23:14.546Z,5.45
2023-04-09T08:24:17.443Z,4.75
2023-04-09T08:25:20.278Z,5.34
2023-04-09T08:26:23.058Z,3.85
2023-04-09T08:27:26.440Z,4.50
2023-04-09T08:28:29.217Z,4.90
2023-04-09T08:29:32.227Z,5.72
2023-04-09T08:30:36.291Z,6.58
2023-04-09T08:31:39.449Z,5.15
2023-04-09T08:32:42.202Z,4.36
2023-04-09T08:33:44.913Z,5.35
2023-04-09T08:34:48.000Z,6.78
2023-04-09T08:35:50.774Z,4.45
2023-04-09T08:36:53.980Z,4.33
2023-04-09T08:37:56.823Z,4.28
2023-04-09T08:39:01.810Z,4.42
2023-04-09T08:40:04.787Z,5.89
2023-04-09T08:41:09.519Z,4.95
2023-04-09T08:42:12.122Z,5.19
2023-04-09T08:43:15.188Z,5.17
2023-04-09T08:44:17.964Z,4.11
2023-04-09T08:45:20.731Z,4.02
2023-04-09T08:46:23.666Z,5.68
2023-04-09T08:47:26.647Z,5.32
2023-04-09T08:48:29.851Z,5.04
2023-04-09T08:49:33.868Z,6.66
2023-04-09T08:50:36.550Z,6.34
2023-04-09T08:51:39.460Z,7.48
2023-04-09T08:52:42.186Z,4.86
2023-04-09T08:53:44.964Z,5.86
2023-04-09T08:54:47.766Z,5.52
2023-04-09T08:55:50.616Z,5.55
2023-04-09T08:56:53.697Z,6.63
2023-04-09T08:57:56.572Z,5.51
2023-04-09T08:58:59.362Z,5.12
2023-04-09T09:00:02.115Z,6.29
2023-04-09T09:01:04.899Z,5.82
2023-04-09T09:02:08.032Z,6.75
2023-04-09T09:03:11.196Z,4.87
2023-04-09T09:04:15.815Z,6.12
2023-04-09T09:05:18.865Z,6.40
2023-04-09T09:06:22.119Z,5.78
2023-04-09T09:07:24.898Z,6.96
2023-04-09T09:08:27.677Z,5.38
2023-04-09T09:09:30.433Z,6.63
2023-04-09T09:10:33.629Z,5.75
2023-04-09T09:11:36.590Z,6.63
2023-04-09T09:12:39.600Z,5.15
2023-04-09T09:13:42.338Z,4.95
2023-04-09T09:14:44.946Z,4.96
2023-04-09T09:15:48.198Z,5.97
2023-04-09T09:16:51.221Z,6.12
2023-04-09T09:17:54.022Z,6.80
2023-04-09T09:18:57.374Z,5.27
2023-04-09T09:20:01.022Z,5.79
2023-04-09T09:21:03.693Z,6.64
2023-04-09T09:22:06.673Z,7.71
2023-04-09T09:23:09.454Z,10.39
2023-04-09T09:24:12.416Z,5.95
2023-04-09T09:25:15.816Z,5.10
2023-04-09T09:26:18.688Z,5.97
2023-04-09T09:27:21.455Z,5.20
2023-04-09T09:28:24.632Z,6.00
2023-04-09T09:29:27.401Z,7.52
2023-04-09T09:30:30.482Z,5.67
2023-04-09T09:31:33.390Z,6.03
2023-04-09T09:32:41.697Z,6.71
2023-04-09T09:33:44.640Z,6.08
2023-04-09T09:34:47.617Z,6.28
2023-04-09T09:35:50.496Z,6.01
2023-04-09T09:36:53.291Z,5.25
2023-04-09T09:37:57.974Z,5.95
2023-04-09T09:39:00.652Z,5.60
2023-04-09T09:40:03.432Z,5.36
2023-04-09T09:41:06.606Z,5.50
2023-04-09T09:42:09.789Z,3.67
2023-04-09T09:43:14.195Z,6.60
2023-04-09T09:44:17.481Z,4.91
2023-04-09T09:45:20.257Z,5.15
2023-04-09T09:46:23.082Z,5.97
2023-04-09T09:47:26.044Z,5.87
2023-04-09T09:48:34.427Z,4.79
2023-04-09T09:49:37.390Z,4.95
2023-04-09T09:50:40.063Z,5.14
2023-04-09T09:51:43.344Z,3.41
2023-04-09T09:52:46.636Z,4.98
2023-04-09T09:53:49.902Z,5.85
2023-04-09T09:54:52.688Z,5.16
2023-04-09T09:55:55.349Z,4.92
2023-04-09T09:56:58.344Z,4.89
2023-04-09T09:58:01.006Z,4.43
2023-04-09T09:59:03.921Z,5.34
2023-04-09T10:00:06.752Z,5.72
2023-04-09T10:01:09.463Z,5.83
2023-04-09T10:02:13.033Z,6.64
2023-04-09T10:03:16.119Z,7.26
2023-04-09T10:04:18.872Z,5.95
2023-04-09T10:05:21.530Z,6.87
2023-04-09T10:06:24.502Z,3.78
2023-04-09T10:07:28.821Z,5.67
2023-04-09T10:08:31.686Z,7.45
2023-04-09T10:09:34.764Z,6.40
2023-04-09T10:10:37.543Z,5.08
2023-04-09T10:13:49.631Z,5.15
2023-04-09T10:15:55.564Z,5.27
2023-04-09T10:16:58.418Z,4.04
2023-04-09T10:18:02.075Z,4.35
2023-04-09T10:19:05.067Z,5.90
2023-04-09T10:20:08.054Z,6.30
2023-04-09T10:21:11.005Z,5.20
2023-04-09T10:22:13.882Z,5.78
2023-04-09T10:23:17.160Z,6.27
2023-04-09T10:24:20.040Z,8.07
2023-04-09T10:25:23.016Z,7.59
2023-04-09T10:26:25.984Z,6.39
2023-04-09T10:27:28.653Z,8.10
2023-04-09T10:28:31.947Z,6.29
2023-04-09T10:29:34.632Z,6.12
2023-04-09T10:30:37.513Z,6.42
2023-04-09T10:31:40.255Z,8.21
2023-04-09T10:32:43.188Z,6.36
2023-04-09T10:33:46.312Z,5.91
2023-04-09T10:34:49.598Z,7.21
2023-04-09T10:35:52.384Z,7.09
2023-04-09T10:36:55.263Z,7.55
2023-04-09T10:37:57.808Z,6.56
2023-04-09T10:39:01.101Z,5.33
2023-04-09T10:40:03.774Z,5.60
2023-04-09T10:41:06.329Z,6.89
2023-04-09T10:42:09.002Z,5.37
2023-04-09T10:43:11.673Z,6.71
2023-04-09T10:44:14.748Z,6.34
2023-04-09T10:45:17.521Z,6.59
2023-04-09T10:46:20.317Z,6.32
2023-04-09T10:47:23.318Z,8.46
2023-04-09T10:48:25.959Z,7.55
2023-04-09T10:49:29.224Z,9.06
2023-04-09T10:50:31.997Z,6.81
2023-04-09T10:51:34.971Z,7.01
2023-04-09T10:52:37.855Z,6.76
2023-04-09T10:53:40.934Z,7.94
2023-04-09T10:54:44.415Z,6.61
2023-04-09T10:55:47.100Z,6.78
2023-04-09T10:56:49.964Z,7.08
2023-04-09T10:57:53.041Z,7.86
2023-04-09T10:58:55.828Z,5.00
2023-04-09T10:59:58.700Z,6.67
2023-04-09T11:01:01.472Z,6.81
2023-04-09T11:02:04.506Z,5.50
2023-04-09T11:03:07.607Z,6.38
2023-04-09T11:04:13.169Z,7.28
2023-04-09T11:06:27.708Z,5.18
2023-04-09T11:07:30.485Z,7.06
2023-04-09T11:08:33.644Z,7.75
2023-04-09T11:09:36.557Z,4.93
2023-04-09T11:10:39.632Z,5.01
2023-04-09T11:11:42.609Z,7.69
2023-04-09T11:12:45.680Z,6.82
2023-04-09T11:13:48.450Z,10.38
2023-04-09T11:14:51.124Z,8.61
2023-04-09T11:15:54.127Z,5.64
2023-04-09T11:16:57.086Z,7.58
2023-04-09T11:18:00.183Z,7.38
2023-04-09T11:19:02.818Z,5.52
2023-04-09T11:20:05.495Z,7.02
2023-04-09T11:21:08.375Z,6.39
2023-04-09T11:22:11.368Z,8.65
2023-04-09T11:23:15.510Z,8.95
2023-04-09T11:24:18.330Z,7.14
2023-04-09T11:25:21.089Z,8.41
2023-04-09T11:26:24.075Z,8.38
2023-04-09T11:27:28.318Z,5.87
2023-04-09T11:28:31.259Z,7.74
2023-04-09T11:29:33.922Z,7.32
2023-04-09T11:30:36.810Z,7.27
2023-04-09T11:31:39.735Z,6.56
2023-04-09T11:32:42.473Z,7.78
2023-04-09T11:33:45.217Z,6.69
2023-04-09T11:34:47.994Z,6.65
2023-04-09T11:35:50.781Z,8.05
2023-04-09T11:36:54.656Z,8.77
2023-04-09T11:37:57.334Z,6.32
2023-04-09T11:39:00.215Z,6.17
2023-04-09T11:40:04.900Z,6.81
2023-04-09T11:41:07.697Z,6.45
2023-04-09T11:42:12.315Z,7.02
2023-04-09T11:43:14.980Z,6.79
2023-04-09T11:44:17.753Z,6.32
2023-04-09T11:45:20.761Z,8.09
2023-04-09T11:46:23.825Z,6.47
2023-04-09T11:47:26.890Z,5.85
2023-04-09T11:48:29.452Z,5.84
2023-04-09T11:49:32.545Z,7.24
2023-04-09T11:50:35.412Z,7.65
2023-04-09T11:51:38.400Z,5.06
2023-04-09T11:52:41.255Z,5.38
2023-04-09T11:53:43.930Z,7.27
2023-04-09T11:54:49.358Z,6.88
2023-04-09T11:55:52.259Z,7.26
2023-04-09T11:57:00.401Z,6.32
2023-04-09T11:58:03.524Z,6.94
2023-04-09T11:59:06.295Z,6.26
2023-04-09T12:00:09.066Z,6.99
2023-04-09T12:01:11.938Z,6.32
2023-04-09T12:02:15.073Z,5.64
2023-04-09T12:03:20.166Z,6.91
2023-04-09T12:04:23.107Z,5.14
2023-04-09T12:05:26.005Z,8.83
2023-04-09T12:06:29.073Z,6.67
2023-04-09T12:07:31.954Z,7.09
2023-04-09T12:08:35.048Z,4.81
2023-04-09T12:09:37.904Z,5.39
2023-04-09T12:10:42.294Z,5.38
2023-04-09T12:11:45.191Z,6.45
2023-04-09T12:12:47.966Z,7.36
2023-04-09T12:13:50.838Z,7.14
2023-04-09T12:14:53.368Z,6.77
2023-04-09T12:15:57.427Z,5.74
2023-04-09T12:17:00.690Z,7.06
2023-04-09T12:18:04.911Z,4.95
2023-04-09T12:19:07.676Z,6.19
2023-04-09T12:20:15.733Z,5.60
2023-04-09T12:21:19.416Z,6.56
2023-04-09T12:22:22.434Z,6.09
2023-04-09T12:23:25.523Z,6.08
2023-04-09T12:24:32.456Z,5.36
2023-04-09T12:25:35.050Z,6.65
2023-04-09T12:26:37.725Z,5.90
2023-04-09T12:27:40.605Z,6.60
2023-04-09T12:28:43.168Z,6.16
2023-04-09T12:29:46.039Z,6.94
2023-04-09T12:30:50.041Z,8.38
2023-04-09T12:31:52.838Z,6.40
2023-04-09T12:32:55.824Z,6.47
2023-04-09T12:33:58.661Z,7.38
2023-04-09T12:35:03.193Z,8.18
2023-04-09T12:36:05.781Z,6.49
2023-04-09T12:37:08.474Z,6.72
2023-04-09T12:38:11.091Z,6.24
2023-04-09T12:39:14.177Z,5.93
2023-04-09T12:40:17.045Z,6.18
2023-04-09T12:41:19.710Z,7.42
2023-04-09T12:42:22.692Z,7.35
2023-04-09T12:43:25.364Z,7.38
2023-04-09T12:44:28.023Z,7.04
2023-04-09T12:45:30.793Z,5.87
2023-04-09T12:46:35.461Z,6.42
2023-04-09T12:47:43.699Z,9.23
2023-04-09T12:48:46.604Z,6.88
2023-04-09T12:49:49.675Z,5.82
2023-04-09T12:50:52.851Z,6.72
2023-04-09T12:51:57.530Z,5.55
2023-04-09T12:53:00.179Z,7.09
2023-04-09T12:54:03.112Z,7.89
2023-04-09T12:55:05.785Z,7.17
2023-04-09T12:56:08.862Z,6.46
2023-04-09T12:57:11.541Z,8.53
2023-04-09T12:58:14.258Z,5.72
2023-04-09T12:59:16.871Z,5.56
2023-04-09T13:00:19.538Z,8.24
2023-04-09T13:01:22.337Z,7.83
2023-04-09T13:02:25.313Z,7.75
2023-04-09T13:03:31.602Z,6.37
2023-04-09T13:04:37.883Z,7.46
2023-04-09T13:05:40.776Z,6.39
2023-04-09T13:06:43.655Z,6.08
2023-04-09T13:07:46.435Z,7.26
2023-04-09T13:08:49.093Z,7.46
2023-04-09T13:09:51.759Z,8.65
2023-04-09T13:10:55.939Z,6.86
2023-04-09T13:11:58.852Z,6.26
2023-04-09T13:13:01.511Z,5.15
2023-04-09T13:14:04.180Z,6.81
2023-04-09T13:15:06.852Z,9.41
2023-04-09T13:16:09.522Z,6.19
2023-04-09T13:17:12.454Z,9.84
2023-04-09T13:18:15.176Z,9.95
2023-04-09T13:19:17.846Z,8.82
2023-04-09T13:20:20.508Z,6.78
2023-04-09T13:21:23.487Z,6.87
2023-04-09T13:22:26.703Z,5.68
2023-04-09T13:23:29.255Z,7.48
2023-04-09T13:24:32.212Z,8.37
2023-04-09T13:25:34.988Z,8.98
2023-04-09T13:26:37.755Z,7.28
2023-04-09T13:27:41.256Z,7.00
2023-04-09T13:28:44.025Z,7.67
2023-04-09T13:29:47.098Z,7.07
2023-04-09T13:30:50.014Z,6.52
2023-04-09T13:31:55.102Z,5.65
2023-04-09T13:32:58.323Z,8.03
2023-04-09T13:34:01.062Z,8.04
2023-04-09T13:35:03.729Z,5.03
2023-04-09T13:36:06.666Z,7.20
2023-04-09T13:37:09.583Z,8.93
2023-04-09T13:38:12.661Z,8.18
2023-04-09T13:39:15.632Z,8.15
2023-04-09T13:40:18.503Z,6.68
2023-04-09T13:41:21.894Z,7.41
2023-04-09T13:42:24.564Z,7.85
2023-04-09T13:43:27.334Z,5.77
2023-04-09T13:44:30.207Z,7.22
2023-04-09T13:45:32.892Z,7.73
2023-04-09T13:46:35.786Z,6.58
2023-04-09T13:47:38.688Z,7.03
2023-04-09T13:48:41.916Z,5.32
2023-04-09T13:49:44.594Z,5.58
2023-04-09T13:50:47.164Z,8.10
2023-04-09T13:51:50.241Z,9.14
2023-04-09T13:52:53.122Z,6.69
2023-04-09T13:53:56.194Z,6.81
2023-04-09T13:54:58.853Z,5.85
2023-04-09T13:56:01.860Z,6.54
2023-04-09T13:57:04.915Z,6.63
2023-04-09T13:58:07.680Z,6.27
2023-04-09T13:59:10.352Z,8.61
2023-04-09T14:00:14.083Z,7.60
2023-04-09T14:01:17.245Z,7.59
2023-04-09T14:02:20.256Z,6.15
2023-04-09T14:03:23.251Z,5.78
2023-04-09T14:04:29.570Z,8.84
2023-04-09T14:05:32.411Z,8.01
2023-04-09T14:06:35.081Z,8.31
2023-04-09T14:07:37.853Z,6.92